sensor_id;sensor_type;location;lat;lon;timestamp;P1;durP1;ratioP1;P2;durP2;ratioP2
19396;SDS011;9834;48.076;11.878;2022-09-17T00:02:25;10.83;;;5.40;;
19396;SDS011;9834;48.076;11.878;2022-09-17T00:04:54;7.57;;;6.27;;
19396;SDS011;9834;48.076;11.878;2022-09-17T00:07:21;7.70;;;5.20;;
19396;SDS011;9834;48.076;11.878;2022-09-17T00:09:48;6.40;;;4.97;;
19396;SDS011;9834;48.076;11.878;2022-09-17T00:12:15;8.97;;;6.47;;
19396;SDS011;9834;48.076;11.878;2022-09-17T00:14:42;9.20;;;5.40;;
19396;SDS011;9834;48.076;11.878;2022-09-17T00:17:10;6.93;;;6.23;;
19396;SDS011;9834;48.076;11.878;2022-09-17T00:19:37;6.60;;;5.10;;
19396;SDS011;9834;48.076;11.878;2022-09-17T00:22:04;8.83;;;5.40;;
19396;SDS011;9834;48.076;11.878;2022-09-17T00:24:31;7.70;;;6.23;;
19396;SDS011;9834;48.076;11.878;2022-09-17T00:26:58;8.50;;;6.43;;
19396;SDS011;9834;48.076;11.878;2022-09-17T00:29:25;7.27;;;5.77;;
19396;SDS011;9834;48.076;11.878;2022-09-17T00:31:52;6.60;;;5.37;;
19396;SDS011;9834;48.076;11.878;2022-09-17T00:34:20;6.63;;;5.43;;
19396;SDS011;9834;48.076;11.878;2022-09-17T00:36:47;6.23;;;5.60;;
19396;SDS011;9834;48.076;11.878;2022-09-17T00:39:14;8.03;;;5.60;;
19396;SDS011;9834;48.076;11.878;2022-09-17T00:41:41;7.63;;;5.30;;
19396;SDS011;9834;48.076;11.878;2022-09-17T00:47:07;4.97;;;4.50;;
19396;SDS011;9834;48.076;11.878;2022-09-17T00:49:42;5.50;;;4.63;;
19396;SDS011;9834;48.076;11.878;2022-09-17T00:52:10;5.53;;;3.80;;
19396;SDS011;9834;48.076;11.878;2022-09-17T00:54:41;10.10;;;4.20;;
19396;SDS011;9834;48.076;11.878;2022-09-17T00:57:11;2.97;;;2.70;;
19396;SDS011;9834;48.076;11.878;2022-09-17T00:59:38;4.30;;;3.60;;
19396;SDS011;9834;48.076;11.878;2022-09-17T01:02:06;3.20;;;2.90;;
19396;SDS011;9834;48.076;11.878;2022-09-17T01:04:33;3.07;;;2.70;;
19396;SDS011;9834;48.076;11.878;2022-09-17T01:07:04;3.53;;;3.07;;
19396;SDS011;9834;48.076;11.878;2022-09-17T01:09:40;3.27;;;2.90;;
19396;SDS011;9834;48.076;11.878;2022-09-17T01:12:18;3.50;;;3.17;;
19396;SDS011;9834;48.076;11.878;2022-09-17T01:14:56;2.50;;;2.30;;
19396;SDS011;9834;48.076;11.878;2022-09-17T01:17:31;4.13;;;3.03;;
19396;SDS011;9834;48.076;11.878;2022-09-17T01:23:08;2.60;;;2.10;;
19396;SDS011;9834;48.076;11.878;2022-09-17T01:25:51;6.80;;;2.20;;
19396;SDS011;9834;48.076;11.878;2022-09-17T01:28:33;2.37;;;2.17;;
19396;SDS011;9834;48.076;11.878;2022-09-17T01:31:16;6.87;;;1.77;;
19396;SDS011;9834;48.076;11.878;2022-09-17T01:33:52;1.90;;;1.77;;
19396;SDS011;9834;48.076;11.878;2022-09-17T01:36:40;1.73;;;1.60;;
19396;SDS011;9834;48.076;11.878;2022-09-17T01:39:13;1.80;;;1.70;;
19396;SDS011;9834;48.076;11.878;2022-09-17T01:41:52;2.13;;;1.93;;
19396;SDS011;9834;48.076;11.878;2022-09-17T01:44:25;2.53;;;2.10;;
19396;SDS011;9834;48.076;11.878;2022-09-17T01:47:00;1.90;;;1.63;;
19396;SDS011;9834;48.076;11.878;2022-09-17T01:49:30;2.57;;;1.67;;
19396;SDS011;9834;48.076;11.878;2022-09-17T01:52:00;1.73;;;1.63;;
19396;SDS011;9834;48.076;11.878;2022-09-17T01:54:29;5.67;;;1.97;;
19396;SDS011;9834;48.076;11.878;2022-09-17T01:57:00;2.20;;;2.00;;
19396;SDS011;9834;48.076;11.878;2022-09-17T01:59:32;1.80;;;1.70;;
19396;SDS011;9834;48.076;11.878;2022-09-17T02:02:05;2.13;;;1.73;;
19396;SDS011;9834;48.076;11.878;2022-09-17T02:04:37;2.57;;;1.87;;
19396;SDS011;9834;48.076;11.878;2022-09-17T02:07:11;1.67;;;1.57;;
19396;SDS011;9834;48.076;11.878;2022-09-17T02:09:46;1.57;;;1.43;;
19396;SDS011;9834;48.076;11.878;2022-09-17T02:12:19;6.10;;;1.83;;
19396;SDS011;9834;48.076;11.878;2022-09-17T02:14:53;2.77;;;1.63;;
19396;SDS011;9834;48.076;11.878;2022-09-17T02:17:25;1.67;;;1.57;;
19396;SDS011;9834;48.076;11.878;2022-09-17T02:19:56;1.80;;;1.70;;
19396;SDS011;9834;48.076;11.878;2022-09-17T02:22:26;2.40;;;1.83;;
19396;SDS011;9834;48.076;11.878;2022-09-17T02:25:01;2.60;;;2.07;;
19396;SDS011;9834;48.076;11.878;2022-09-17T02:27:35;1.40;;;1.30;;
19396;SDS011;9834;48.076;11.878;2022-09-17T02:30:07;3.30;;;1.80;;
19396;SDS011;9834;48.076;11.878;2022-09-17T02:32:36;2.00;;;1.90;;
19396;SDS011;9834;48.076;11.878;2022-09-17T02:35:03;2.50;;;2.30;;
19396;SDS011;9834;48.076;11.878;2022-09-17T02:37:31;2.90;;;1.97;;
19396;SDS011;9834;48.076;11.878;2022-09-17T02:39:58;3.10;;;1.87;;
19396;SDS011;9834;48.076;11.878;2022-09-17T02:42:27;1.80;;;1.70;;
19396;SDS011;9834;48.076;11.878;2022-09-17T02:45:05;2.00;;;1.87;;
19396;SDS011;9834;48.076;11.878;2022-09-17T02:47:46;2.37;;;2.17;;
19396;SDS011;9834;48.076;11.878;2022-09-17T02:50:34;2.43;;;1.93;;
19396;SDS011;9834;48.076;11.878;2022-09-17T02:53:18;2.30;;;1.93;;
19396;SDS011;9834;48.076;11.878;2022-09-17T02:55:58;2.80;;;2.53;;
19396;SDS011;9834;48.076;11.878;2022-09-17T02:58:31;2.53;;;2.33;;
19396;SDS011;9834;48.076;11.878;2022-09-17T03:03:42;6.50;;;2.30;;
19396;SDS011;9834;48.076;11.878;2022-09-17T03:06:11;2.67;;;2.43;;
19396;SDS011;9834;48.076;11.878;2022-09-17T03:08:40;2.33;;;2.13;;
19396;SDS011;9834;48.076;11.878;2022-09-17T03:11:07;2.23;;;2.00;;
19396;SDS011;9834;48.076;11.878;2022-09-17T03:13:37;2.83;;;2.00;;
19396;SDS011;9834;48.076;11.878;2022-09-17T03:16:04;1.83;;;1.73;;
19396;SDS011;9834;48.076;11.878;2022-09-17T03:18:32;2.77;;;2.50;;
19396;SDS011;9834;48.076;11.878;2022-09-17T03:21:00;3.33;;;2.80;;
19396;SDS011;9834;48.076;11.878;2022-09-17T03:23:27;3.03;;;2.80;;
19396;SDS011;9834;48.076;11.878;2022-09-17T03:25:54;1.93;;;1.80;;
19396;SDS011;9834;48.076;11.878;2022-09-17T03:28:21;11.07;;;3.13;;
19396;SDS011;9834;48.076;11.878;2022-09-17T03:30:49;2.93;;;1.97;;
19396;SDS011;9834;48.076;11.878;2022-09-17T03:33:16;2.57;;;2.37;;
19396;SDS011;9834;48.076;11.878;2022-09-17T03:35:44;2.20;;;1.97;;
19396;SDS011;9834;48.076;11.878;2022-09-17T03:38:12;4.23;;;2.47;;
19396;SDS011;9834;48.076;11.878;2022-09-17T03:40:39;2.87;;;2.20;;
19396;SDS011;9834;48.076;11.878;2022-09-17T03:43:06;2.53;;;2.17;;
19396;SDS011;9834;48.076;11.878;2022-09-17T03:45:34;3.13;;;1.97;;
19396;SDS011;9834;48.076;11.878;2022-09-17T03:48:01;6.53;;;2.80;;
19396;SDS011;9834;48.076;11.878;2022-09-17T03:50:28;2.37;;;2.13;;
19396;SDS011;9834;48.076;11.878;2022-09-17T03:52:54;2.10;;;1.83;;
19396;SDS011;9834;48.076;11.878;2022-09-17T03:55:23;2.33;;;2.13;;
19396;SDS011;9834;48.076;11.878;2022-09-17T03:57:50;2.93;;;1.97;;
19396;SDS011;9834;48.076;11.878;2022-09-17T04:00:16;3.93;;;2.20;;
19396;SDS011;9834;48.076;11.878;2022-09-17T04:02:43;1.97;;;1.87;;
19396;SDS011;9834;48.076;11.878;2022-09-17T04:05:10;2.47;;;1.80;;
19396;SDS011;9834;48.076;11.878;2022-09-17T04:07:38;2.40;;;1.50;;
19396;SDS011;9834;48.076;11.878;2022-09-17T04:10:05;2.50;;;2.10;;
19396;SDS011;9834;48.076;11.878;2022-09-17T04:12:34;3.70;;;2.10;;
19396;SDS011;9834;48.076;11.878;2022-09-17T04:15:01;1.43;;;1.33;;
19396;SDS011;9834;48.076;11.878;2022-09-17T04:17:28;3.40;;;2.10;;
19396;SDS011;9834;48.076;11.878;2022-09-17T04:19:55;2.97;;;1.70;;
19396;SDS011;9834;48.076;11.878;2022-09-17T04:22:22;1.90;;;1.80;;
19396;SDS011;9834;48.076;11.878;2022-09-17T04:24:49;2.20;;;1.97;;
19396;SDS011;9834;48.076;11.878;2022-09-17T04:27:16;4.90;;;2.20;;
19396;SDS011;9834;48.076;11.878;2022-09-17T04:29:45;4.57;;;2.20;;
19396;SDS011;9834;48.076;11.878;2022-09-17T04:32:12;3.50;;;1.80;;
19396;SDS011;9834;48.076;11.878;2022-09-17T04:34:39;2.07;;;1.73;;
19396;SDS011;9834;48.076;11.878;2022-09-17T04:37:06;2.80;;;1.70;;
19396;SDS011;9834;48.076;11.878;2022-09-17T04:39:34;2.70;;;2.00;;
19396;SDS011;9834;48.076;11.878;2022-09-17T04:42:02;2.20;;;1.73;;
19396;SDS011;9834;48.076;11.878;2022-09-17T04:44:30;2.07;;;1.77;;
19396;SDS011;9834;48.076;11.878;2022-09-17T04:47:00;3.43;;;1.73;;
19396;SDS011;9834;48.076;11.878;2022-09-17T04:49:27;2.93;;;1.80;;
19396;SDS011;9834;48.076;11.878;2022-09-17T04:52:00;3.60;;;1.57;;
19396;SDS011;9834;48.076;11.878;2022-09-17T04:54:28;2.10;;;1.67;;
19396;SDS011;9834;48.076;11.878;2022-09-17T04:56:54;1.53;;;1.43;;
19396;SDS011;9834;48.076;11.878;2022-09-17T04:59:22;3.47;;;1.80;;
19396;SDS011;9834;48.076;11.878;2022-09-17T05:01:49;1.70;;;1.60;;
19396;SDS011;9834;48.076;11.878;2022-09-17T05:04:17;2.07;;;1.63;;
19396;SDS011;9834;48.076;11.878;2022-09-17T05:06:44;3.40;;;1.60;;
19396;SDS011;9834;48.076;11.878;2022-09-17T05:09:12;1.70;;;1.60;;
19396;SDS011;9834;48.076;11.878;2022-09-17T05:11:39;1.87;;;1.70;;
19396;SDS011;9834;48.076;11.878;2022-09-17T05:14:06;4.67;;;2.00;;
19396;SDS011;9834;48.076;11.878;2022-09-17T05:16:33;1.67;;;1.37;;
19396;SDS011;9834;48.076;11.878;2022-09-17T05:19:00;2.37;;;2.23;;
19396;SDS011;9834;48.076;11.878;2022-09-17T05:21:29;4.00;;;1.73;;
19396;SDS011;9834;48.076;11.878;2022-09-17T05:23:56;4.63;;;2.13;;
19396;SDS011;9834;48.076;11.878;2022-09-17T05:26:25;1.90;;;1.40;;
19396;SDS011;9834;48.076;11.878;2022-09-17T05:28:53;2.43;;;1.83;;
19396;SDS011;9834;48.076;11.878;2022-09-17T05:31:20;6.70;;;5.07;;
19396;SDS011;9834;48.076;11.878;2022-09-17T05:33:47;12.37;;;8.83;;
19396;SDS011;9834;48.076;11.878;2022-09-17T05:36:14;16.17;;;7.17;;
19396;SDS011;9834;48.076;11.878;2022-09-17T05:38:43;9.93;;;5.40;;
19396;SDS011;9834;48.076;11.878;2022-09-17T05:41:09;4.83;;;3.27;;
19396;SDS011;9834;48.076;11.878;2022-09-17T05:43:36;4.10;;;3.03;;
19396;SDS011;9834;48.076;11.878;2022-09-17T05:46:04;5.13;;;3.40;;
19396;SDS011;9834;48.076;11.878;2022-09-17T05:48:32;4.43;;;4.03;;
19396;SDS011;9834;48.076;11.878;2022-09-17T05:50:59;4.57;;;3.30;;
19396;SDS011;9834;48.076;11.878;2022-09-17T05:53:26;4.90;;;2.47;;
19396;SDS011;9834;48.076;11.878;2022-09-17T05:55:56;4.13;;;1.60;;
19396;SDS011;9834;48.076;11.878;2022-09-17T05:58:23;1.57;;;1.47;;
19396;SDS011;9834;48.076;11.878;2022-09-17T06:00:51;3.27;;;1.93;;
19396;SDS011;9834;48.076;11.878;2022-09-17T06:03:18;7.07;;;2.37;;
19396;SDS011;9834;48.076;11.878;2022-09-17T06:05:51;2.03;;;1.90;;
19396;SDS011;9834;48.076;11.878;2022-09-17T06:08:19;1.87;;;1.77;;
19396;SDS011;9834;48.076;11.878;2022-09-17T06:10:46;1.57;;;1.47;;
19396;SDS011;9834;48.076;11.878;2022-09-17T06:13:15;1.80;;;1.70;;
19396;SDS011;9834;48.076;11.878;2022-09-17T06:15:42;1.40;;;1.30;;
19396;SDS011;9834;48.076;11.878;2022-09-17T06:18:14;2.20;;;1.97;;
19396;SDS011;9834;48.076;11.878;2022-09-17T06:20:41;1.47;;;1.37;;
19396;SDS011;9834;48.076;11.878;2022-09-17T06:23:07;5.03;;;1.80;;
19396;SDS011;9834;48.076;11.878;2022-09-17T06:25:34;2.30;;;1.87;;
19396;SDS011;9834;48.076;11.878;2022-09-17T06:28:01;2.33;;;1.33;;
19396;SDS011;9834;48.076;11.878;2022-09-17T06:30:30;3.27;;;1.63;;
19396;SDS011;9834;48.076;11.878;2022-09-17T06:32:58;1.63;;;1.30;;
19396;SDS011;9834;48.076;11.878;2022-09-17T06:38:48;1.33;;;1.23;;
19396;SDS011;9834;48.076;11.878;2022-09-17T06:41:14;1.63;;;1.47;;
19396;SDS011;9834;48.076;11.878;2022-09-17T06:43:42;2.40;;;1.53;;
19396;SDS011;9834;48.076;11.878;2022-09-17T06:46:10;2.27;;;1.67;;
19396;SDS011;9834;48.076;11.878;2022-09-17T06:48:37;2.27;;;1.60;;
19396;SDS011;9834;48.076;11.878;2022-09-17T06:51:05;1.93;;;1.50;;
19396;SDS011;9834;48.076;11.878;2022-09-17T06:53:34;1.87;;;1.30;;
19396;SDS011;9834;48.076;11.878;2022-09-17T06:56:02;1.03;;;1.00;;
19396;SDS011;9834;48.076;11.878;2022-09-17T06:58:30;1.50;;;1.40;;
19396;SDS011;9834;48.076;11.878;2022-09-17T07:00:58;2.77;;;1.23;;
19396;SDS011;9834;48.076;11.878;2022-09-17T07:03:27;4.07;;;1.40;;
19396;SDS011;9834;48.076;11.878;2022-09-17T07:05:55;1.33;;;1.17;;
19396;SDS011;9834;48.076;11.878;2022-09-17T07:08:22;2.10;;;1.50;;
19396;SDS011;9834;48.076;11.878;2022-09-17T07:10:50;1.50;;;1.40;;
19396;SDS011;9834;48.076;11.878;2022-09-17T07:13:19;1.73;;;1.20;;
19396;SDS011;9834;48.076;11.878;2022-09-17T07:15:51;3.27;;;1.03;;
19396;SDS011;9834;48.076;11.878;2022-09-17T07:18:19;1.97;;;1.07;;
19396;SDS011;9834;48.076;11.878;2022-09-17T07:20:52;5.40;;;1.13;;
19396;SDS011;9834;48.076;11.878;2022-09-17T07:23:20;1.33;;;1.00;;
19396;SDS011;9834;48.076;11.878;2022-09-17T07:25:51;1.23;;;1.07;;
19396;SDS011;9834;48.076;11.878;2022-09-17T07:28:18;0.70;;;0.70;;
19396;SDS011;9834;48.076;11.878;2022-09-17T07:30:46;3.03;;;0.77;;
19396;SDS011;9834;48.076;11.878;2022-09-17T07:33:13;1.43;;;1.20;;
19396;SDS011;9834;48.076;11.878;2022-09-17T07:35:41;0.90;;;0.90;;
19396;SDS011;9834;48.076;11.878;2022-09-17T07:38:09;1.40;;;1.33;;
19396;SDS011;9834;48.076;11.878;2022-09-17T07:40:36;1.70;;;1.27;;
19396;SDS011;9834;48.076;11.878;2022-09-17T07:43:03;1.37;;;0.97;;
19396;SDS011;9834;48.076;11.878;2022-09-17T07:45:31;4.43;;;1.20;;
19396;SDS011;9834;48.076;11.878;2022-09-17T07:47:58;1.13;;;1.07;;
19396;SDS011;9834;48.076;11.878;2022-09-17T07:50:25;1.03;;;0.83;;
19396;SDS011;9834;48.076;11.878;2022-09-17T07:52:52;1.40;;;1.20;;
19396;SDS011;9834;48.076;11.878;2022-09-17T07:55:20;1.70;;;1.33;;
19396;SDS011;9834;48.076;11.878;2022-09-17T07:57:49;1.67;;;0.93;;
19396;SDS011;9834;48.076;11.878;2022-09-17T08:00:17;0.70;;;0.70;;
19396;SDS011;9834;48.076;11.878;2022-09-17T08:02:44;2.50;;;1.10;;
19396;SDS011;9834;48.076;11.878;2022-09-17T08:05:11;2.80;;;1.30;;
19396;SDS011;9834;48.076;11.878;2022-09-17T08:07:38;1.97;;;1.10;;
19396;SDS011;9834;48.076;11.878;2022-09-17T08:10:06;2.77;;;1.13;;
19396;SDS011;9834;48.076;11.878;2022-09-17T08:12:34;3.77;;;1.37;;
19396;SDS011;9834;48.076;11.878;2022-09-17T08:15:01;2.87;;;1.07;;
19396;SDS011;9834;48.076;11.878;2022-09-17T08:17:29;1.03;;;0.97;;
19396;SDS011;9834;48.076;11.878;2022-09-17T08:19:56;7.40;;;1.00;;
19396;SDS011;9834;48.076;11.878;2022-09-17T08:22:23;2.90;;;1.47;;
19396;SDS011;9834;48.076;11.878;2022-09-17T08:24:49;1.47;;;1.33;;
19396;SDS011;9834;48.076;11.878;2022-09-17T08:27:16;0.80;;;0.80;;
19396;SDS011;9834;48.076;11.878;2022-09-17T08:29:45;0.50;;;0.50;;
19396;SDS011;9834;48.076;11.878;2022-09-17T08:32:13;2.67;;;1.20;;
19396;SDS011;9834;48.076;11.878;2022-09-17T08:34:39;2.03;;;1.20;;
19396;SDS011;9834;48.076;11.878;2022-09-17T08:37:06;2.97;;;1.20;;
19396;SDS011;9834;48.076;11.878;2022-09-17T08:39:33;1.13;;;0.90;;
19396;SDS011;9834;48.076;11.878;2022-09-17T08:42:02;0.80;;;0.80;;
19396;SDS011;9834;48.076;11.878;2022-09-17T08:44:37;4.47;;;3.30;;
19396;SDS011;9834;48.076;11.878;2022-09-17T08:47:13;3.43;;;2.20;;
19396;SDS011;9834;48.076;11.878;2022-09-17T08:49:45;3.87;;;1.40;;
19396;SDS011;9834;48.076;11.878;2022-09-17T08:55:24;2.77;;;0.77;;
19396;SDS011;9834;48.076;11.878;2022-09-17T08:58:01;2.67;;;0.80;;
19396;SDS011;9834;48.076;11.878;2022-09-17T09:00:44;0.83;;;0.83;;
19396;SDS011;9834;48.076;11.878;2022-09-17T09:03:20;4.30;;;1.13;;
19396;SDS011;9834;48.076;11.878;2022-09-17T09:05:55;5.80;;;1.53;;
19396;SDS011;9834;48.076;11.878;2022-09-17T09:08:24;6.50;;;0.90;;
19396;SDS011;9834;48.076;11.878;2022-09-17T09:10:55;0.80;;;0.80;;
19396;SDS011;9834;48.076;11.878;2022-09-17T09:13:26;1.23;;;1.13;;
19396;SDS011;9834;48.076;11.878;2022-09-17T09:15:55;0.67;;;0.67;;
19396;SDS011;9834;48.076;11.878;2022-09-17T09:18:28;5.63;;;1.27;;
19396;SDS011;9834;48.076;11.878;2022-09-17T09:20:58;0.83;;;0.83;;
19396;SDS011;9834;48.076;11.878;2022-09-17T09:23:46;1.10;;;1.00;;
19396;SDS011;9834;48.076;11.878;2022-09-17T09:26:18;1.27;;;0.80;;
19396;SDS011;9834;48.076;11.878;2022-09-17T09:28:52;1.93;;;0.97;;
19396;SDS011;9834;48.076;11.878;2022-09-17T09:31:42;2.93;;;1.57;;
19396;SDS011;9834;48.076;11.878;2022-09-17T09:34:20;2.70;;;1.03;;
19396;SDS011;9834;48.076;11.878;2022-09-17T09:36:48;2.67;;;1.20;;
19396;SDS011;9834;48.076;11.878;2022-09-17T09:39:16;1.77;;;1.17;;
19396;SDS011;9834;48.076;11.878;2022-09-17T09:44:16;2.13;;;1.23;;
19396;SDS011;9834;48.076;11.878;2022-09-17T09:49:42;1.80;;;1.20;;
19396;SDS011;9834;48.076;11.878;2022-09-17T09:52:27;3.20;;;1.60;;
19396;SDS011;9834;48.076;11.878;2022-09-17T09:55:09;3.20;;;1.67;;
19396;SDS011;9834;48.076;11.878;2022-09-17T09:57:48;1.50;;;1.00;;
19396;SDS011;9834;48.076;11.878;2022-09-17T10:03:03;1.77;;;0.90;;
19396;SDS011;9834;48.076;11.878;2022-09-17T10:05:37;1.07;;;0.90;;
19396;SDS011;9834;48.076;11.878;2022-09-17T10:08:12;1.00;;;1.00;;
19396;SDS011;9834;48.076;11.878;2022-09-17T10:10:52;1.30;;;1.13;;
19396;SDS011;9834;48.076;11.878;2022-09-17T10:13:24;1.13;;;1.03;;
19396;SDS011;9834;48.076;11.878;2022-09-17T10:15:51;2.07;;;1.13;;
19396;SDS011;9834;48.076;11.878;2022-09-17T10:18:20;1.17;;;1.07;;
19396;SDS011;9834;48.076;11.878;2022-09-17T10:21:06;5.30;;;2.00;;
19396;SDS011;9834;48.076;11.878;2022-09-17T10:23:44;1.53;;;1.10;;
19396;SDS011;9834;48.076;11.878;2022-09-17T10:26:18;1.30;;;1.20;;
19396;SDS011;9834;48.076;11.878;2022-09-17T10:28:48;2.17;;;1.20;;
19396;SDS011;9834;48.076;11.878;2022-09-17T10:31:16;2.40;;;1.13;;
19396;SDS011;9834;48.076;11.878;2022-09-17T10:33:50;2.03;;;1.47;;
19396;SDS011;9834;48.076;11.878;2022-09-17T10:36:38;5.50;;;2.00;;
19396;SDS011;9834;48.076;11.878;2022-09-17T10:39:22;1.83;;;1.57;;
19396;SDS011;9834;48.076;11.878;2022-09-17T10:41:56;1.20;;;1.10;;
19396;SDS011;9834;48.076;11.878;2022-09-17T10:44:25;3.47;;;1.63;;
19396;SDS011;9834;48.076;11.878;2022-09-17T10:46:53;2.37;;;1.97;;
19396;SDS011;9834;48.076;11.878;2022-09-17T10:49:33;1.83;;;1.60;;
19396;SDS011;9834;48.076;11.878;2022-09-17T10:52:05;2.20;;;1.97;;
19396;SDS011;9834;48.076;11.878;2022-09-17T10:54:43;4.43;;;2.07;;
19396;SDS011;9834;48.076;11.878;2022-09-17T11:03:45;3.73;;;2.57;;
19396;SDS011;9834;48.076;11.878;2022-09-17T11:06:37;1.63;;;1.53;;
19396;SDS011;9834;48.076;11.878;2022-09-17T11:09:22;2.00;;;1.77;;
19396;SDS011;9834;48.076;11.878;2022-09-17T11:11:59;3.17;;;1.60;;
19396;SDS011;9834;48.076;11.878;2022-09-17T11:14:45;2.53;;;1.80;;
19396;SDS011;9834;48.076;11.878;2022-09-17T11:17:33;5.70;;;1.57;;
19396;SDS011;9834;48.076;11.878;2022-09-17T11:20:17;1.00;;;1.00;;
19396;SDS011;9834;48.076;11.878;2022-09-17T11:22:52;1.40;;;1.30;;
19396;SDS011;9834;48.076;11.878;2022-09-17T11:25:33;1.67;;;1.37;;
19396;SDS011;9834;48.076;11.878;2022-09-17T11:28:11;2.40;;;1.30;;
19396;SDS011;9834;48.076;11.878;2022-09-17T11:30:48;2.10;;;1.40;;
19396;SDS011;9834;48.076;11.878;2022-09-17T11:36:16;3.23;;;1.47;;
19396;SDS011;9834;48.076;11.878;2022-09-17T11:38:47;6.47;;;1.40;;
19396;SDS011;9834;48.076;11.878;2022-09-17T11:41:18;1.47;;;1.13;;
19396;SDS011;9834;48.076;11.878;2022-09-17T11:43:49;1.87;;;1.23;;
19396;SDS011;9834;48.076;11.878;2022-09-17T11:46:24;3.47;;;1.53;;
19396;SDS011;9834;48.076;11.878;2022-09-17T11:48:57;1.00;;;0.90;;
19396;SDS011;9834;48.076;11.878;2022-09-17T11:51:28;2.77;;;1.33;;
19396;SDS011;9834;48.076;11.878;2022-09-17T11:53:58;1.17;;;1.07;;
19396;SDS011;9834;48.076;11.878;2022-09-17T11:56:34;9.60;;;2.47;;
19396;SDS011;9834;48.076;11.878;2022-09-17T11:59:09;3.77;;;1.13;;
19396;SDS011;9834;48.076;11.878;2022-09-17T12:01:43;1.17;;;0.90;;
19396;SDS011;9834;48.076;11.878;2022-09-17T12:04:23;1.63;;;1.00;;
19396;SDS011;9834;48.076;11.878;2022-09-17T12:06:58;1.50;;;1.27;;
19396;SDS011;9834;48.076;11.878;2022-09-17T12:09:31;1.13;;;0.87;;
19396;SDS011;9834;48.076;11.878;2022-09-17T12:12:02;1.23;;;1.13;;
19396;SDS011;9834;48.076;11.878;2022-09-17T12:14:37;1.47;;;1.37;;
19396;SDS011;9834;48.076;11.878;2022-09-17T12:17:10;3.97;;;1.83;;
19396;SDS011;9834;48.076;11.878;2022-09-17T12:19:42;1.60;;;1.50;;
19396;SDS011;9834;48.076;11.878;2022-09-17T12:22:12;1.93;;;1.63;;
19396;SDS011;9834;48.076;11.878;2022-09-17T12:24:43;1.77;;;1.57;;
19396;SDS011;9834;48.076;11.878;2022-09-17T12:27:16;1.10;;;1.10;;
19396;SDS011;9834;48.076;11.878;2022-09-17T12:30:02;0.90;;;0.90;;
19396;SDS011;9834;48.076;11.878;2022-09-17T12:32:46;0.60;;;0.60;;
19396;SDS011;9834;48.076;11.878;2022-09-17T12:35:41;3.00;;;0.90;;
19396;SDS011;9834;48.076;11.878;2022-09-17T12:41:38;0.90;;;0.90;;
19396;SDS011;9834;48.076;11.878;2022-09-17T12:47:12;0.73;;;0.73;;
19396;SDS011;9834;48.076;11.878;2022-09-17T12:49:50;1.13;;;1.03;;
19396;SDS011;9834;48.076;11.878;2022-09-17T12:52:40;1.87;;;1.30;;
19396;SDS011;9834;48.076;11.878;2022-09-17T12:55:26;1.33;;;1.13;;
19396;SDS011;9834;48.076;11.878;2022-09-17T12:58:03;1.00;;;0.90;;
19396;SDS011;9834;48.076;11.878;2022-09-17T13:00:49;2.23;;;1.27;;
19396;SDS011;9834;48.076;11.878;2022-09-17T13:03:20;2.90;;;1.37;;
19396;SDS011;9834;48.076;11.878;2022-09-17T13:05:57;1.10;;;1.10;;
19396;SDS011;9834;48.076;11.878;2022-09-17T13:08:56;1.30;;;1.20;;
19396;SDS011;9834;48.076;11.878;2022-09-17T13:11:55;0.97;;;0.97;;
19396;SDS011;9834;48.076;11.878;2022-09-17T13:14:46;5.30;;;1.97;;
19396;SDS011;9834;48.076;11.878;2022-09-17T13:17:26;20.80;;;11.03;;
19396;SDS011;9834;48.076;11.878;2022-09-17T13:19:58;2.00;;;1.70;;
19396;SDS011;9834;48.076;11.878;2022-09-17T13:22:29;1.10;;;1.10;;
19396;SDS011;9834;48.076;11.878;2022-09-17T13:25:02;1.23;;;1.23;;
19396;SDS011;9834;48.076;11.878;2022-09-17T13:27:31;0.60;;;0.60;;
19396;SDS011;9834;48.076;11.878;2022-09-17T13:30:02;1.70;;;1.00;;
19396;SDS011;9834;48.076;11.878;2022-09-17T13:38:15;3.83;;;1.20;;
19396;SDS011;9834;48.076;11.878;2022-09-17T13:40:43;6.33;;;1.57;;
19396;SDS011;9834;48.076;11.878;2022-09-17T13:43:11;0.90;;;0.90;;
19396;SDS011;9834;48.076;11.878;2022-09-17T13:48:44;2.97;;;0.73;;
19396;SDS011;9834;48.076;11.878;2022-09-17T13:54:13;1.43;;;0.87;;
19396;SDS011;9834;48.076;11.878;2022-09-17T13:56:44;1.50;;;1.20;;
19396;SDS011;9834;48.076;11.878;2022-09-17T13:59:15;2.40;;;0.90;;
19396;SDS011;9834;48.076;11.878;2022-09-17T14:02:01;0.90;;;0.80;;
19396;SDS011;9834;48.076;11.878;2022-09-17T14:04:53;1.60;;;0.97;;
19396;SDS011;9834;48.076;11.878;2022-09-17T14:07:34;2.10;;;1.27;;
19396;SDS011;9834;48.076;11.878;2022-09-17T14:19:31;0.70;;;0.70;;
19396;SDS011;9834;48.076;11.878;2022-09-17T14:22:07;0.80;;;0.80;;
19396;SDS011;9834;48.076;11.878;2022-09-17T14:24:44;0.87;;;0.80;;
19396;SDS011;9834;48.076;11.878;2022-09-17T14:27:20;2.00;;;1.20;;
19396;SDS011;9834;48.076;11.878;2022-09-17T14:30:01;2.10;;;1.03;;
19396;SDS011;9834;48.076;11.878;2022-09-17T14:32:50;10.67;;;5.43;;
19396;SDS011;9834;48.076;11.878;2022-09-17T14:35:25;0.50;;;0.50;;
19396;SDS011;9834;48.076;11.878;2022-09-17T14:38:01;2.57;;;0.80;;
19396;SDS011;9834;48.076;11.878;2022-09-17T14:40:33;1.07;;;0.50;;
19396;SDS011;9834;48.076;11.878;2022-09-17T14:43:00;0.97;;;0.67;;
19396;SDS011;9834;48.076;11.878;2022-09-17T14:45:30;0.40;;;0.40;;
19396;SDS011;9834;48.076;11.878;2022-09-17T14:48:17;0.38;;;0.38;;
19396;SDS011;9834;48.076;11.878;2022-09-17T14:50:51;0.90;;;0.90;;
19396;SDS011;9834;48.076;11.878;2022-09-17T14:53:20;1.73;;;0.82;;
19396;SDS011;9834;48.076;11.878;2022-09-17T14:55:47;1.20;;;0.95;;
19396;SDS011;9834;48.076;11.878;2022-09-17T14:58:27;1.48;;;1.38;;
19396;SDS011;9834;48.076;11.878;2022-09-17T15:00:59;2.28;;;1.25;;
19396;SDS011;9834;48.076;11.878;2022-09-17T15:03:26;1.47;;;1.23;;
19396;SDS011;9834;48.076;11.878;2022-09-17T15:05:53;1.13;;;1.03;;
19396;SDS011;9834;48.076;11.878;2022-09-17T15:08:23;3.43;;;1.20;;
19396;SDS011;9834;48.076;11.878;2022-09-17T15:10:52;0.80;;;0.80;;
19396;SDS011;9834;48.076;11.878;2022-09-17T15:13:22;0.63;;;0.60;;
19396;SDS011;9834;48.076;11.878;2022-09-17T15:15:56;0.43;;;0.43;;
19396;SDS011;9834;48.076;11.878;2022-09-17T15:21:18;1.07;;;0.77;;
19396;SDS011;9834;48.076;11.878;2022-09-17T15:23:56;0.60;;;0.60;;
19396;SDS011;9834;48.076;11.878;2022-09-17T15:26:27;1.70;;;1.17;;
19396;SDS011;9834;48.076;11.878;2022-09-17T15:28:57;5.80;;;1.70;;
19396;SDS011;9834;48.076;11.878;2022-09-17T15:31:27;3.10;;;1.10;;
19396;SDS011;9834;48.076;11.878;2022-09-17T15:33:57;0.90;;;0.90;;
19396;SDS011;9834;48.076;11.878;2022-09-17T15:36:25;1.40;;;1.27;;
19396;SDS011;9834;48.076;11.878;2022-09-17T15:38:55;0.70;;;0.70;;
19396;SDS011;9834;48.076;11.878;2022-09-17T15:41:32;1.30;;;0.80;;
19396;SDS011;9834;48.076;11.878;2022-09-17T15:44:10;0.67;;;0.67;;
19396;SDS011;9834;48.076;11.878;2022-09-17T15:46:40;1.00;;;0.83;;
19396;SDS011;9834;48.076;11.878;2022-09-17T15:51:53;0.80;;;0.73;;
19396;SDS011;9834;48.076;11.878;2022-09-17T15:54:28;5.70;;;1.47;;
19396;SDS011;9834;48.076;11.878;2022-09-17T15:56:58;0.97;;;0.87;;
19396;SDS011;9834;48.076;11.878;2022-09-17T15:59:27;0.77;;;0.77;;
19396;SDS011;9834;48.076;11.878;2022-09-17T16:02:02;0.50;;;0.50;;
19396;SDS011;9834;48.076;11.878;2022-09-17T16:04:31;1.30;;;1.00;;
19396;SDS011;9834;48.076;11.878;2022-09-17T16:06:59;0.73;;;0.73;;
19396;SDS011;9834;48.076;11.878;2022-09-17T16:09:44;1.53;;;0.97;;
19396;SDS011;9834;48.076;11.878;2022-09-17T16:12:15;3.37;;;3.07;;
19396;SDS011;9834;48.076;11.878;2022-09-17T16:14:44;4.13;;;1.80;;
19396;SDS011;9834;48.076;11.878;2022-09-17T16:17:25;1.67;;;1.50;;
19396;SDS011;9834;48.076;11.878;2022-09-17T16:19:57;1.43;;;1.33;;
19396;SDS011;9834;48.076;11.878;2022-09-17T16:22:24;0.70;;;0.70;;